sensor_id;sensor_type;location;lat;lon;timestamp;P1;durP1;ratioP1;P2;durP2;ratioP2
58362;SDS011;54977;51.510;7.522;2022-10-31T00:04:23;10.02;;;3.85;;
58362;SDS011;54977;51.510;7.522;2022-10-31T00:09:25;9.55;;;3.70;;
58362;SDS011;54977;51.510;7.522;2022-10-31T00:14:28;9.05;;;4.20;;
58362;SDS011;54977;51.510;7.522;2022-10-31T00:19:30;10.65;;;4.38;;
58362;SDS011;54977;51.510;7.522;2022-10-31T00:24:32;9.52;;;4.10;;
58362;SDS011;54977;51.510;7.522;2022-10-31T00:29:35;7.75;;;4.10;;
58362;SDS011;54977;51.510;7.522;2022-10-31T00:34:37;10.38;;;4.70;;
58362;SDS011;54977;51.510;7.522;2022-10-31T00:39:38;9.35;;;4.15;;
58362;SDS011;54977;51.510;7.522;2022-10-31T00:44:42;8.05;;;4.65;;
58362;SDS011;54977;51.510;7.522;2022-10-31T00:49:43;9.10;;;4.63;;
58362;SDS011;54977;51.510;7.522;2022-10-31T00:54:45;7.03;;;3.55;;
58362;SDS011;54977;51.510;7.522;2022-10-31T00:59:48;9.95;;;4.40;;
58362;SDS011;54977;51.510;7.522;2022-10-31T01:04:50;12.85;;;5.15;;
58362;SDS011;54977;51.510;7.522;2022-10-31T01:09:52;13.93;;;6.05;;
58362;SDS011;54977;51.510;7.522;2022-10-31T01:14:55;11.00;;;4.90;;
58362;SDS011;54977;51.510;7.522;2022-10-31T01:19:57;9.13;;;4.65;;
58362;SDS011;54977;51.510;7.522;2022-10-31T01:24:59;17.35;;;6.38;;
58362;SDS011;54977;51.510;7.522;2022-10-31T01:30:03;11.25;;;5.47;;
58362;SDS011;54977;51.510;7.522;2022-10-31T01:35:06;10.68;;;4.75;;
58362;SDS011;54977;51.510;7.522;2022-10-31T01:40:08;12.15;;;4.85;;
58362;SDS011;54977;51.510;7.522;2022-10-31T01:45:19;10.68;;;4.50;;
58362;SDS011;54977;51.510;7.522;2022-10-31T01:50:25;8.02;;;4.38;;
58362;SDS011;54977;51.510;7.522;2022-10-31T01:55:30;8.23;;;4.78;;
58362;SDS011;54977;51.510;7.522;2022-10-31T02:00:37;11.27;;;5.15;;
58362;SDS011;54977;51.510;7.522;2022-10-31T02:05:40;8.57;;;3.83;;
58362;SDS011;54977;51.510;7.522;2022-10-31T02:10:44;11.40;;;5.22;;
58362;SDS011;54977;51.510;7.522;2022-10-31T02:15:48;14.60;;;5.18;;
58362;SDS011;54977;51.510;7.522;2022-10-31T02:20:55;9.73;;;5.15;;
58362;SDS011;54977;51.510;7.522;2022-10-31T02:26:09;10.97;;;4.80;;
58362;SDS011;54977;51.510;7.522;2022-10-31T02:31:32;12.65;;;5.22;;
58362;SDS011;54977;51.510;7.522;2022-10-31T02:36:41;15.63;;;5.28;;
58362;SDS011;54977;51.510;7.522;2022-10-31T02:41:50;13.48;;;5.78;;
58362;SDS011;54977;51.510;7.522;2022-10-31T02:47:05;13.18;;;5.63;;
58362;SDS011;54977;51.510;7.522;2022-10-31T02:52:13;13.10;;;5.85;;
58362;SDS011;54977;51.510;7.522;2022-10-31T02:57:19;12.43;;;6.35;;
58362;SDS011;54977;51.510;7.522;2022-10-31T03:02:39;14.05;;;5.70;;
58362;SDS011;54977;51.510;7.522;2022-10-31T03:07:54;15.90;;;6.28;;
58362;SDS011;54977;51.510;7.522;2022-10-31T03:13:01;14.05;;;5.72;;
58362;SDS011;54977;51.510;7.522;2022-10-31T03:18:11;11.57;;;4.93;;
58362;SDS011;54977;51.510;7.522;2022-10-31T03:23:18;12.65;;;5.55;;
58362;SDS011;54977;51.510;7.522;2022-10-31T03:28:23;13.30;;;5.43;;
58362;SDS011;54977;51.510;7.522;2022-10-31T03:33:31;13.68;;;6.03;;
58362;SDS011;54977;51.510;7.522;2022-10-31T03:38:36;12.18;;;4.85;;
58362;SDS011;54977;51.510;7.522;2022-10-31T03:43:41;12.82;;;5.50;;
58362;SDS011;54977;51.510;7.522;2022-10-31T03:48:48;14.52;;;5.60;;
58362;SDS011;54977;51.510;7.522;2022-10-31T03:53:52;11.77;;;4.72;;
58362;SDS011;54977;51.510;7.522;2022-10-31T03:58:58;9.90;;;4.43;;
58362;SDS011;54977;51.510;7.522;2022-10-31T04:04:04;13.35;;;5.32;;
58362;SDS011;54977;51.510;7.522;2022-10-31T04:09:07;11.80;;;4.75;;
58362;SDS011;54977;51.510;7.522;2022-10-31T04:14:11;11.50;;;4.95;;
58362;SDS011;54977;51.510;7.522;2022-10-31T04:19:14;13.23;;;5.25;;
58362;SDS011;54977;51.510;7.522;2022-10-31T04:24:16;11.43;;;4.60;;
58362;SDS011;54977;51.510;7.522;2022-10-31T04:29:18;13.55;;;5.38;;
58362;SDS011;54977;51.510;7.522;2022-10-31T04:34:21;11.00;;;5.53;;
58362;SDS011;54977;51.510;7.522;2022-10-31T04:39:23;9.13;;;4.55;;
58362;SDS011;54977;51.510;7.522;2022-10-31T04:49:28;13.93;;;5.70;;
58362;SDS011;54977;51.510;7.522;2022-10-31T04:54:29;12.13;;;5.88;;
58362;SDS011;54977;51.510;7.522;2022-10-31T05:04:34;11.05;;;4.70;;
58362;SDS011;54977;51.510;7.522;2022-10-31T05:09:36;12.38;;;5.07;;
58362;SDS011;54977;51.510;7.522;2022-10-31T05:19:41;11.77;;;5.30;;
58362;SDS011;54977;51.510;7.522;2022-10-31T05:24:42;13.40;;;5.53;;
58362;SDS011;54977;51.510;7.522;2022-10-31T05:34:47;14.00;;;5.95;;
58362;SDS011;54977;51.510;7.522;2022-10-31T05:39:49;17.02;;;6.50;;
58362;SDS011;54977;51.510;7.522;2022-10-31T05:49:54;12.43;;;5.95;;
58362;SDS011;54977;51.510;7.522;2022-10-31T05:54:56;11.30;;;5.82;;
58362;SDS011;54977;51.510;7.522;2022-10-31T06:05:00;14.38;;;6.82;;
58362;SDS011;54977;51.510;7.522;2022-10-31T06:10:04;18.20;;;7.18;;
58362;SDS011;54977;51.510;7.522;2022-10-31T06:15:07;13.80;;;7.18;;
58362;SDS011;54977;51.510;7.522;2022-10-31T06:20:11;15.18;;;6.93;;
58362;SDS011;54977;51.510;7.522;2022-10-31T06:25:13;14.15;;;7.22;;
58362;SDS011;54977;51.510;7.522;2022-10-31T06:30:15;15.52;;;6.85;;
58362;SDS011;54977;51.510;7.522;2022-10-31T06:35:18;16.30;;;7.43;;
58362;SDS011;54977;51.510;7.522;2022-10-31T06:40:20;17.25;;;7.13;;
58362;SDS011;54977;51.510;7.522;2022-10-31T06:45:23;12.35;;;6.88;;
58362;SDS011;54977;51.510;7.522;2022-10-31T06:50:26;13.57;;;6.90;;
58362;SDS011;54977;51.510;7.522;2022-10-31T06:55:28;14.18;;;7.35;;
58362;SDS011;54977;51.510;7.522;2022-10-31T07:00:30;13.25;;;7.53;;
58362;SDS011;54977;51.510;7.522;2022-10-31T07:05:34;15.90;;;7.47;;
58362;SDS011;54977;51.510;7.522;2022-10-31T07:10:36;15.18;;;6.80;;
58362;SDS011;54977;51.510;7.522;2022-10-31T07:15:39;15.70;;;8.00;;
58362;SDS011;54977;51.510;7.522;2022-10-31T07:20:43;16.13;;;7.32;;
58362;SDS011;54977;51.510;7.522;2022-10-31T07:25:45;15.13;;;6.07;;
58362;SDS011;54977;51.510;7.522;2022-10-31T07:30:49;14.68;;;6.43;;
58362;SDS011;54977;51.510;7.522;2022-10-31T07:35:52;14.63;;;6.70;;
58362;SDS011;54977;51.510;7.522;2022-10-31T07:40:54;16.23;;;6.80;;
58362;SDS011;54977;51.510;7.522;2022-10-31T07:45:56;13.40;;;6.10;;
58362;SDS011;54977;51.510;7.522;2022-10-31T07:50:59;14.02;;;6.50;;
58362;SDS011;54977;51.510;7.522;2022-10-31T07:56:01;13.73;;;5.72;;
58362;SDS011;54977;51.510;7.522;2022-10-31T08:01:03;15.18;;;6.47;;
58362;SDS011;54977;51.510;7.522;2022-10-31T08:06:06;18.58;;;6.75;;
58362;SDS011;54977;51.510;7.522;2022-10-31T08:11:08;12.77;;;6.25;;
58362;SDS011;54977;51.510;7.522;2022-10-31T08:16:10;14.38;;;6.97;;
58362;SDS011;54977;51.510;7.522;2022-10-31T08:21:13;13.73;;;6.35;;
58362;SDS011;54977;51.510;7.522;2022-10-31T08:26:15;13.75;;;6.28;;
58362;SDS011;54977;51.510;7.522;2022-10-31T08:31:17;13.13;;;7.05;;
58362;SDS011;54977;51.510;7.522;2022-10-31T08:36:20;13.38;;;6.38;;
58362;SDS011;54977;51.510;7.522;2022-10-31T08:41:22;12.13;;;6.47;;
58362;SDS011;54977;51.510;7.522;2022-10-31T08:46:24;12.40;;;6.32;;
58362;SDS011;54977;51.510;7.522;2022-10-31T08:51:27;14.70;;;5.75;;
58362;SDS011;54977;51.510;7.522;2022-10-31T08:56:30;12.10;;;6.50;;
58362;SDS011;54977;51.510;7.522;2022-10-31T09:01:32;13.30;;;6.50;;
58362;SDS011;54977;51.510;7.522;2022-10-31T09:06:35;15.77;;;6.50;;
58362;SDS011;54977;51.510;7.522;2022-10-31T09:11:37;19.15;;;7.47;;
58362;SDS011;54977;51.510;7.522;2022-10-31T09:16:38;16.65;;;6.97;;
58362;SDS011;54977;51.510;7.522;2022-10-31T09:21:41;14.30;;;7.20;;
58362;SDS011;54977;51.510;7.522;2022-10-31T09:26:43;16.65;;;7.05;;
58362;SDS011;54977;51.510;7.522;2022-10-31T09:31:45;16.55;;;7.18;;
58362;SDS011;54977;51.510;7.522;2022-10-31T09:36:48;15.85;;;6.63;;
58362;SDS011;54977;51.510;7.522;2022-10-31T09:41:57;18.08;;;6.80;;
58362;SDS011;54977;51.510;7.522;2022-10-31T09:47:08;14.80;;;7.10;;
58362;SDS011;54977;51.510;7.522;2022-10-31T09:52:19;19.80;;;6.90;;
58362;SDS011;54977;51.510;7.522;2022-10-31T09:57:25;16.95;;;8.20;;
58362;SDS011;54977;51.510;7.522;2022-10-31T10:02:32;17.35;;;7.90;;
58362;SDS011;54977;51.510;7.522;2022-10-31T10:07:44;17.08;;;7.53;;
58362;SDS011;54977;51.510;7.522;2022-10-31T10:12:59;19.88;;;7.95;;
58362;SDS011;54977;51.510;7.522;2022-10-31T10:18:12;23.80;;;9.30;;
58362;SDS011;54977;51.510;7.522;2022-10-31T10:23:32;17.95;;;8.23;;
58362;SDS011;54977;51.510;7.522;2022-10-31T10:28:40;19.60;;;8.48;;
58362;SDS011;54977;51.510;7.522;2022-10-31T10:33:49;17.85;;;8.63;;
58362;SDS011;54977;51.510;7.522;2022-10-31T10:38:59;20.73;;;9.32;;
58362;SDS011;54977;51.510;7.522;2022-10-31T10:44:05;17.98;;;9.07;;
58362;SDS011;54977;51.510;7.522;2022-10-31T10:49:12;21.67;;;8.43;;
58362;SDS011;54977;51.510;7.522;2022-10-31T10:54:29;19.13;;;8.65;;
58362;SDS011;54977;51.510;7.522;2022-10-31T10:59:46;17.92;;;8.02;;
58362;SDS011;54977;51.510;7.522;2022-10-31T11:04:50;20.75;;;8.32;;
58362;SDS011;54977;51.510;7.522;2022-10-31T11:10:03;17.65;;;8.63;;
58362;SDS011;54977;51.510;7.522;2022-10-31T11:15:17;21.25;;;8.38;;
58362;SDS011;54977;51.510;7.522;2022-10-31T11:20:26;21.98;;;8.52;;
58362;SDS011;54977;51.510;7.522;2022-10-31T11:25:33;20.08;;;7.57;;
58362;SDS011;54977;51.510;7.522;2022-10-31T11:30:35;18.38;;;7.88;;
58362;SDS011;54977;51.510;7.522;2022-10-31T11:35:44;18.00;;;8.82;;
58362;SDS011;54977;51.510;7.522;2022-10-31T11:40:53;17.80;;;8.13;;
58362;SDS011;54977;51.510;7.522;2022-10-31T11:45:56;14.30;;;6.88;;
58362;SDS011;54977;51.510;7.522;2022-10-31T11:50:58;17.42;;;7.30;;
58362;SDS011;54977;51.510;7.522;2022-10-31T11:56:06;17.23;;;7.95;;
58362;SDS011;54977;51.510;7.522;2022-10-31T12:01:21;13.27;;;7.05;;
58362;SDS011;54977;51.510;7.522;2022-10-31T12:06:27;15.63;;;6.88;;
58362;SDS011;54977;51.510;7.522;2022-10-31T12:11:35;15.15;;;6.13;;
58362;SDS011;54977;51.510;7.522;2022-10-31T12:16:46;11.77;;;5.43;;
58362;SDS011;54977;51.510;7.522;2022-10-31T12:21:58;13.82;;;5.82;;
58362;SDS011;54977;51.510;7.522;2022-10-31T12:27:14;11.52;;;6.35;;
58362;SDS011;54977;51.510;7.522;2022-10-31T12:32:29;13.88;;;6.35;;
58362;SDS011;54977;51.510;7.522;2022-10-31T12:37:42;12.88;;;5.75;;
58362;SDS011;54977;51.510;7.522;2022-10-31T12:42:57;11.63;;;5.80;;
58362;SDS011;54977;51.510;7.522;2022-10-31T12:48:16;10.23;;;5.47;;
58362;SDS011;54977;51.510;7.522;2022-10-31T12:53:32;12.27;;;5.55;;
58362;SDS011;54977;51.510;7.522;2022-10-31T12:58:45;8.63;;;4.93;;
58362;SDS011;54977;51.510;7.522;2022-10-31T13:03:51;11.05;;;4.60;;
58362;SDS011;54977;51.510;7.522;2022-10-31T13:08:59;12.85;;;5.75;;
58362;SDS011;54977;51.510;7.522;2022-10-31T13:14:05;15.90;;;6.95;;
58362;SDS011;54977;51.510;7.522;2022-10-31T13:19:12;17.00;;;7.93;;
58362;SDS011;54977;51.510;7.522;2022-10-31T13:24:18;16.88;;;7.63;;
58362;SDS011;54977;51.510;7.522;2022-10-31T13:29:26;19.40;;;7.80;;
58362;SDS011;54977;51.510;7.522;2022-10-31T13:34:35;22.10;;;8.27;;
58362;SDS011;54977;51.510;7.522;2022-10-31T13:39:44;17.25;;;7.43;;
58362;SDS011;54977;51.510;7.522;2022-10-31T13:45:08;18.10;;;8.63;;
58362;SDS011;54977;51.510;7.522;2022-10-31T13:50:20;20.42;;;8.95;;
58362;SDS011;54977;51.510;7.522;2022-10-31T13:55:37;20.05;;;8.93;;
58362;SDS011;54977;51.510;7.522;2022-10-31T14:00:42;15.73;;;7.50;;
58362;SDS011;54977;51.510;7.522;2022-10-31T14:05:51;18.98;;;7.93;;
58362;SDS011;54977;51.510;7.522;2022-10-31T14:10:54;13.05;;;5.43;;
58362;SDS011;54977;51.510;7.522;2022-10-31T14:15:59;10.43;;;5.35;;
58362;SDS011;54977;51.510;7.522;2022-10-31T14:21:12;12.00;;;4.43;;
58362;SDS011;54977;51.510;7.522;2022-10-31T14:26:17;9.60;;;3.92;;
58362;SDS011;54977;51.510;7.522;2022-10-31T14:31:36;7.97;;;3.95;;
58362;SDS011;54977;51.510;7.522;2022-10-31T14:36:41;11.65;;;4.68;;
58362;SDS011;54977;51.510;7.522;2022-10-31T14:41:55;8.82;;;4.13;;
58362;SDS011;54977;51.510;7.522;2022-10-31T14:47:10;8.82;;;4.13;;
58362;SDS011;54977;51.510;7.522;2022-10-31T14:52:18;10.40;;;3.92;;
58362;SDS011;54977;51.510;7.522;2022-10-31T14:57:21;8.52;;;3.67;;
58362;SDS011;54977;51.510;7.522;2022-10-31T15:02:30;8.43;;;4.35;;
58362;SDS011;54977;51.510;7.522;2022-10-31T15:07:36;11.35;;;3.92;;
58362;SDS011;54977;51.510;7.522;2022-10-31T15:12:50;8.20;;;3.70;;
58362;SDS011;54977;51.510;7.522;2022-10-31T15:17:54;7.95;;;3.58;;
58362;SDS011;54977;51.510;7.522;2022-10-31T15:22:57;10.80;;;3.83;;
58362;SDS011;54977;51.510;7.522;2022-10-31T15:28:00;10.23;;;3.13;;
58362;SDS011;54977;51.510;7.522;2022-10-31T15:33:14;13.77;;;4.97;;
58362;SDS011;54977;51.510;7.522;2022-10-31T15:38:21;7.82;;;3.65;;
58362;SDS011;54977;51.510;7.522;2022-10-31T15:43:24;12.15;;;4.35;;
58362;SDS011;54977;51.510;7.522;2022-10-31T15:48:27;11.85;;;4.90;;
58362;SDS011;54977;51.510;7.522;2022-10-31T15:53:33;9.32;;;4.32;;
58362;SDS011;54977;51.510;7.522;2022-10-31T15:58:41;15.20;;;5.95;;
58362;SDS011;54977;51.510;7.522;2022-10-31T16:03:58;19.38;;;7.60;;
58362;SDS011;54977;51.510;7.522;2022-10-31T16:09:18;18.27;;;6.75;;
58362;SDS011;54977;51.510;7.522;2022-10-31T16:14:23;14.70;;;7.85;;
58362;SDS011;54977;51.510;7.522;2022-10-31T16:19:29;12.40;;;6.72;;
58362;SDS011;54977;51.510;7.522;2022-10-31T16:24:36;17.40;;;6.95;;
58362;SDS011;54977;51.510;7.522;2022-10-31T16:29:46;16.17;;;6.75;;
58362;SDS011;54977;51.510;7.522;2022-10-31T16:34:58;12.95;;;6.40;;
58362;SDS011;54977;51.510;7.522;2022-10-31T16:40:18;19.92;;;6.30;;
58362;SDS011;54977;51.510;7.522;2022-10-31T16:45:22;18.48;;;6.47;;
58362;SDS011;54977;51.510;7.522;2022-10-31T16:50:26;17.20;;;7.13;;
58362;SDS011;54977;51.510;7.522;2022-10-31T16:55:28;15.13;;;6.57;;
58362;SDS011;54977;51.510;7.522;2022-10-31T17:00:30;14.93;;;6.85;;
58362;SDS011;54977;51.510;7.522;2022-10-31T17:05:33;21.17;;;8.50;;
58362;SDS011;54977;51.510;7.522;2022-10-31T17:10:37;16.25;;;7.47;;
58362;SDS011;54977;51.510;7.522;2022-10-31T17:15:41;18.05;;;7.68;;
58362;SDS011;54977;51.510;7.522;2022-10-31T17:20:46;14.50;;;7.43;;
58362;SDS011;54977;51.510;7.522;2022-10-31T17:25:49;27.27;;;13.02;;
58362;SDS011;54977;51.510;7.522;2022-10-31T17:30:51;24.73;;;13.07;;
58362;SDS011;54977;51.510;7.522;2022-10-31T17:35:56;12.18;;;7.93;;
58362;SDS011;54977;51.510;7.522;2022-10-31T17:40:58;10.60;;;4.75;;
58362;SDS011;54977;51.510;7.522;2022-10-31T17:46:05;7.60;;;2.53;;
58362;SDS011;54977;51.510;7.522;2022-10-31T17:51:08;5.35;;;2.28;;
58362;SDS011;54977;51.510;7.522;2022-10-31T17:56:11;7.72;;;1.92;;
58362;SDS011;54977;51.510;7.522;2022-10-31T18:01:14;5.80;;;2.00;;
58362;SDS011;54977;51.510;7.522;2022-10-31T18:06:18;7.13;;;1.98;;
58362;SDS011;54977;51.510;7.522;2022-10-31T18:11:20;5.43;;;1.52;;
58362;SDS011;54977;51.510;7.522;2022-10-31T18:16:22;5.25;;;2.20;;
58362;SDS011;54977;51.510;7.522;2022-10-31T18:21:26;6.95;;;2.00;;
58362;SDS011;54977;51.510;7.522;2022-10-31T18:26:28;7.15;;;2.30;;
58362;SDS011;54977;51.510;7.522;2022-10-31T18:31:30;6.68;;;1.95;;
58362;SDS011;54977;51.510;7.522;2022-10-31T18:36:33;6.10;;;2.10;;
58362;SDS011;54977;51.510;7.522;2022-10-31T18:41:35;12.80;;;2.40;;
58362;SDS011;54977;51.510;7.522;2022-10-31T18:46:37;13.07;;;2.33;;
58362;SDS011;54977;51.510;7.522;2022-10-31T18:51:41;9.77;;;2.55;;
58362;SDS011;54977;51.510;7.522;2022-10-31T18:56:43;7.90;;;1.92;;
58362;SDS011;54977;51.510;7.522;2022-10-31T19:01:45;6.20;;;1.98;;
58362;SDS011;54977;51.510;7.522;2022-10-31T19:06:48;5.50;;;1.73;;
58362;SDS011;54977;51.510;7.522;2022-10-31T19:11:50;5.03;;;2.03;;
58362;SDS011;54977;51.510;7.522;2022-10-31T19:16:52;4.15;;;2.00;;
58362;SDS011;54977;51.510;7.522;2022-10-31T19:21:55;7.32;;;2.00;;
58362;SDS011;54977;51.510;7.522;2022-10-31T19:26:58;5.95;;;1.83;;
58362;SDS011;54977;51.510;7.522;2022-10-31T19:32:00;4.35;;;1.98;;
58362;SDS011;54977;51.510;7.522;2022-10-31T19:37:03;7.82;;;2.20;;
58362;SDS011;54977;51.510;7.522;2022-10-31T19:42:05;7.63;;;2.38;;
58362;SDS011;54977;51.510;7.522;2022-10-31T19:47:07;6.10;;;1.85;;
58362;SDS011;54977;51.510;7.522;2022-10-31T19:52:11;4.93;;;2.47;;
58362;SDS011;54977;51.510;7.522;2022-10-31T19:57:12;9.73;;;2.97;;
58362;SDS011;54977;51.510;7.522;2022-10-31T20:02:14;7.25;;;2.30;;
58362;SDS011;54977;51.510;7.522;2022-10-31T20:07:20;5.35;;;2.15;;
58362;SDS011;54977;51.510;7.522;2022-10-31T20:12:22;7.70;;;2.33;;
58362;SDS011;54977;51.510;7.522;2022-10-31T20:17:24;7.75;;;2.33;;
58362;SDS011;54977;51.510;7.522;2022-10-31T20:22:27;5.85;;;2.20;;
58362;SDS011;54977;51.510;7.522;2022-10-31T20:27:29;6.22;;;2.03;;
58362;SDS011;54977;51.510;7.522;2022-10-31T20:32:31;6.32;;;2.35;;
58362;SDS011;54977;51.510;7.522;2022-10-31T20:37:34;5.53;;;2.13;;
58362;SDS011;54977;51.510;7.522;2022-10-31T20:42:37;8.13;;;2.10;;
58362;SDS011;54977;51.510;7.522;2022-10-31T20:47:39;5.80;;;2.13;;
58362;SDS011;54977;51.510;7.522;2022-10-31T20:52:42;5.40;;;2.17;;
58362;SDS011;54977;51.510;7.522;2022-10-31T20:57:44;8.25;;;2.38;;
58362;SDS011;54977;51.510;7.522;2022-10-31T21:02:46;7.30;;;2.22;;
58362;SDS011;54977;51.510;7.522;2022-10-31T21:07:49;4.82;;;1.65;;
58362;SDS011;54977;51.510;7.522;2022-10-31T21:12:51;5.18;;;2.25;;
58362;SDS011;54977;51.510;7.522;2022-10-31T21:17:53;6.30;;;2.13;;
58362;SDS011;54977;51.510;7.522;2022-10-31T21:22:56;6.78;;;2.17;;
58362;SDS011;54977;51.510;7.522;2022-10-31T21:27:58;5.63;;;1.70;;
58362;SDS011;54977;51.510;7.522;2022-10-31T21:33:00;6.75;;;1.92;;
58362;SDS011;54977;51.510;7.522;2022-10-31T21:38:03;6.05;;;1.88;;
58362;SDS011;54977;51.510;7.522;2022-10-31T21:43:05;4.35;;;2.03;;
58362;SDS011;54977;51.510;7.522;2022-10-31T21:48:06;4.43;;;1.80;;
58362;SDS011;54977;51.510;7.522;2022-10-31T21:53:10;5.95;;;1.95;;
58362;SDS011;54977;51.510;7.522;2022-10-31T21:58:29;4.50;;;1.90;;
58362;SDS011;54977;51.510;7.522;2022-10-31T22:03:33;6.93;;;1.88;;
58362;SDS011;54977;51.510;7.522;2022-10-31T22:08:37;4.82;;;1.80;;
58362;SDS011;54977;51.510;7.522;2022-10-31T22:13:40;4.60;;;2.15;;
58362;SDS011;54977;51.510;7.522;2022-10-31T22:18:43;4.80;;;2.15;;
58362;SDS011;54977;51.510;7.522;2022-10-31T22:23:49;5.32;;;1.75;;
58362;SDS011;54977;51.510;7.522;2022-10-31T22:28:53;5.00;;;1.98;;
58362;SDS011;54977;51.510;7.522;2022-10-31T22:33:58;3.17;;;1.63;;
58362;SDS011;54977;51.510;7.522;2022-10-31T22:39:02;7.05;;;2.20;;
58362;SDS011;54977;51.510;7.522;2022-10-31T22:44:04;5.65;;;1.90;;
58362;SDS011;54977;51.510;7.522;2022-10-31T22:49:07;4.03;;;2.08;;
58362;SDS011;54977;51.510;7.522;2022-10-31T22:54:13;3.85;;;1.75;;
58362;SDS011;54977;51.510;7.522;2022-10-31T22:59:16;7.68;;;2.05;;
58362;SDS011;54977;51.510;7.522;2022-10-31T23:04:18;8.57;;;2.40;;
58362;SDS011;54977;51.510;7.522;2022-10-31T23:09:22;3.63;;;1.85;;
58362;SDS011;54977;51.510;7.522;2022-10-31T23:14:23;6.78;;;2.25;;
58362;SDS011;54977;51.510;7.522;2022-10-31T23:19:26;4.28;;;2.15;;
58362;SDS011;54977;51.510;7.522;2022-10-31T23:24:32;3.67;;;1.70;;
58362;SDS011;54977;51.510;7.522;2022-10-31T23:29:37;5.38;;;1.88;;
58362;SDS011;54977;51.510;7.522;2022-10-31T23:34:40;4.78;;;2.00;;
58362;SDS011;54977;51.510;7.522;2022-10-31T23:39:44;5.07;;;1.67;;
58362;SDS011;54977;51.510;7.522;2022-10-31T23:44:46;6.03;;;2.67;;
58362;SDS011;54977;51.510;7.522;2022-10-31T23:49:48;4.78;;;1.80;;
58362;SDS011;54977;51.510;7.522;2022-10-31T23:54:52;4.40;;;1.65;;
58362;SDS011;54977;51.510;7.522;2022-10-31T23:59:53;5.97;;;1.90;;
